createdAt,value
2022-10-05T00:01:24.857Z,8.90
2022-10-05T00:03:52.852Z,8.80
2022-10-05T00:06:19.670Z,8.80
2022-10-05T00:08:46.102Z,8.80
2022-10-05T00:11:14.161Z,8.80
2022-10-05T00:13:41.147Z,8.80
2022-10-05T00:16:12.762Z,8.80
2022-10-05T00:18:39.803Z,8.80
2022-10-05T00:21:17.452Z,8.80
2022-10-05T00:23:44.172Z,8.90
2022-10-05T00:26:16.181Z,8.90
2022-10-05T00:28:42.801Z,8.90
2022-10-05T00:31:17.903Z,9.00
2022-10-05T00:33:44.499Z,9.10
2022-10-05T00:36:11.135Z,9.10
2022-10-05T00:38:37.575Z,9.10
2022-10-05T00:41:22.592Z,9.00
2022-10-05T00:43:59.520Z,9.00
2022-10-05T00:46:30.082Z,9.00
2022-10-05T00:49:15.542Z,8.90
2022-10-05T00:51:44.177Z,8.90
2022-10-05T00:54:18.464Z,8.90
2022-10-05T00:57:03.940Z,8.90
2022-10-05T00:59:49.057Z,9.00
2022-10-05T01:02:21.182Z,9.00
2022-10-05T01:04:56.256Z,9.00
2022-10-05T01:07:28.557Z,9.00
2022-10-05T01:09:54.981Z,8.90
2022-10-05T01:12:40.412Z,8.90
2022-10-05T01:15:09.857Z,8.80
2022-10-05T01:17:45.748Z,8.70
2022-10-05T01:20:22.380Z,8.70
2022-10-05T01:23:12.109Z,8.60
2022-10-05T01:25:38.595Z,8.50
2022-10-05T01:28:05.728Z,8.40
2022-10-05T01:30:42.850Z,8.40
2022-10-05T01:33:23.663Z,8.40
2022-10-05T01:35:50.195Z,8.30
2022-10-05T01:38:16.659Z,8.30
2022-10-05T01:40:43.143Z,8.20
2022-10-05T01:43:22.131Z,8.20
2022-10-05T01:45:51.769Z,8.20
2022-10-05T01:48:35.406Z,8.20
2022-10-05T01:51:12.067Z,8.10
2022-10-05T01:53:43.260Z,8.10
2022-10-05T01:56:13.261Z,8.20
2022-10-05T01:58:58.288Z,8.20
2022-10-05T02:01:24.915Z,8.20
2022-10-05T02:03:54.110Z,8.30
2022-10-05T02:06:23.512Z,8.40
2022-10-05T02:08:53.556Z,8.40
2022-10-05T02:11:20.168Z,8.30
2022-10-05T02:13:46.650Z,8.30
2022-10-05T02:16:36.587Z,8.30
2022-10-05T02:19:24.579Z,8.20
2022-10-05T02:22:07.861Z,8.20
2022-10-05T02:24:42.629Z,8.20
2022-10-05T02:27:10.511Z,8.20
2022-10-05T02:29:39.488Z,8.10
2022-10-05T02:32:09.473Z,8.20
2022-10-05T02:34:37.560Z,8.10
2022-10-05T02:37:23.194Z,8.10
2022-10-05T02:40:11.592Z,8.10
2022-10-05T02:42:47.790Z,8.00
2022-10-05T02:45:14.287Z,8.00
2022-10-05T02:47:51.843Z,8.00
2022-10-05T02:50:18.359Z,7.90
2022-10-05T02:52:50.881Z,7.90
2022-10-05T02:55:19.154Z,7.90
2022-10-05T02:57:59.706Z,7.80
2022-10-05T03:00:30.566Z,7.80
2022-10-05T03:02:57.040Z,7.80
2022-10-05T03:05:35.260Z,7.80
2022-10-05T03:08:04.172Z,7.80
2022-10-05T03:10:36.483Z,7.90
2022-10-05T03:13:09.895Z,8.00
2022-10-05T03:15:45.301Z,8.10
2022-10-05T03:18:11.732Z,8.10
2022-10-05T03:20:48.594Z,8.20
2022-10-05T03:23:24.524Z,8.30
2022-10-05T03:25:54.024Z,8.30
2022-10-05T03:28:32.461Z,8.40
2022-10-05T03:31:02.002Z,8.50
2022-10-05T03:33:40.746Z,8.60
2022-10-05T03:36:16.653Z,8.60
2022-10-05T03:38:49.312Z,8.80
2022-10-05T03:41:21.311Z,8.80
2022-10-05T03:43:58.256Z,8.90
2022-10-05T03:46:29.879Z,9.00
2022-10-05T03:48:56.392Z,9.00
2022-10-05T03:51:22.792Z,9.00
2022-10-05T03:53:59.745Z,9.00
2022-10-05T03:56:35.232Z,9.00
2022-10-05T03:59:20.566Z,9.00
2022-10-05T04:01:57.755Z,9.00
2022-10-05T04:04:27.926Z,9.00
2022-10-05T04:06:55.808Z,9.00
2022-10-05T04:09:27.979Z,9.00
2022-10-05T04:12:14.069Z,9.00
2022-10-05T04:14:43.816Z,9.00
2022-10-05T04:17:33.598Z,9.10
2022-10-05T04:20:03.151Z,9.00
2022-10-05T04:22:41.775Z,9.00
2022-10-05T04:25:20.382Z,9.00
2022-10-05T04:27:54.732Z,9.10
2022-10-05T04:30:23.988Z,9.10
2022-10-05T04:32:57.323Z,9.10
2022-10-05T04:35:23.831Z,9.10
2022-10-05T04:37:53.439Z,9.10
2022-10-05T04:40:29.554Z,9.10
2022-10-05T04:43:04.636Z,9.20
2022-10-05T04:45:37.179Z,9.20
2022-10-05T04:48:13.324Z,9.30
2022-10-05T04:50:47.887Z,9.30
2022-10-05T04:53:23.049Z,9.40
2022-10-05T04:55:53.441Z,9.40
2022-10-05T04:58:42.252Z,9.40
2022-10-05T05:01:11.976Z,9.50
2022-10-05T05:03:38.475Z,9.60
2022-10-05T05:06:16.863Z,9.70
2022-10-05T05:09:03.004Z,9.80
2022-10-05T05:11:38.680Z,9.70
2022-10-05T05:14:24.269Z,9.60
2022-10-05T05:17:03.112Z,9.60
2022-10-05T05:19:41.487Z,9.60
2022-10-05T05:22:26.999Z,9.60
2022-10-05T05:25:04.384Z,9.60
2022-10-05T05:27:38.544Z,9.70
2022-10-05T05:30:21.102Z,9.70
2022-10-05T05:32:50.801Z,9.80
2022-10-05T05:35:23.290Z,9.80
2022-10-05T05:38:01.607Z,9.90
2022-10-05T05:40:36.019Z,9.90
2022-10-05T05:43:06.579Z,10.00
2022-10-05T05:45:40.296Z,10.00
2022-10-05T05:48:33.361Z,10.00
2022-10-05T05:51:03.482Z,10.10
2022-10-05T05:53:36.878Z,10.10
2022-10-05T05:56:11.571Z,10.20
2022-10-05T05:58:38.222Z,10.20
2022-10-05T06:01:32.208Z,10.20
2022-10-05T06:04:03.473Z,10.20
2022-10-05T06:06:38.723Z,10.20
2022-10-05T06:09:24.116Z,10.20
2022-10-05T06:11:56.948Z,10.30
2022-10-05T06:14:31.695Z,10.30
2022-10-05T06:17:00.887Z,10.20
2022-10-05T06:19:28.762Z,10.30
2022-10-05T06:21:55.296Z,10.40
2022-10-05T06:24:26.627Z,10.30
2022-10-05T06:26:58.899Z,10.40
2022-10-05T06:29:30.770Z,10.40
2022-10-05T06:32:14.806Z,10.40
2022-10-05T06:34:46.990Z,10.50
2022-10-05T06:37:20.097Z,10.50
2022-10-05T06:39:49.724Z,10.60
2022-10-05T06:42:24.045Z,10.60
2022-10-05T06:45:00.357Z,10.70
2022-10-05T06:47:36.227Z,10.70
2022-10-05T06:50:14.853Z,10.70
2022-10-05T06:52:49.074Z,10.80
2022-10-05T06:55:35.532Z,10.90
2022-10-05T06:58:12.979Z,11.00
2022-10-05T07:00:43.617Z,11.00
2022-10-05T07:03:25.504Z,11.20
2022-10-05T07:06:07.476Z,11.20
2022-10-05T07:08:41.288Z,11.30
2022-10-05T07:11:24.917Z,11.30
2022-10-05T07:14:08.620Z,11.40
2022-10-05T07:16:45.318Z,11.50
2022-10-05T07:19:11.819Z,11.50
2022-10-05T07:21:49.946Z,11.50
2022-10-05T07:24:24.864Z,11.40
2022-10-05T07:26:57.716Z,11.40
2022-10-05T07:29:43.064Z,11.30
2022-10-05T07:32:18.629Z,11.30
2022-10-05T07:35:04.181Z,11.20
2022-10-05T07:38:00.013Z,11.20
2022-10-05T07:40:33.121Z,11.30
2022-10-05T07:43:05.567Z,11.20
2022-10-05T07:45:50.713Z,11.30
2022-10-05T07:48:20.467Z,11.40
2022-10-05T07:50:52.646Z,11.40
2022-10-05T07:53:23.090Z,11.40
2022-10-05T07:55:58.496Z,11.40
2022-10-05T07:58:29.370Z,11.40
2022-10-05T08:01:16.872Z,11.50
2022-10-05T08:03:57.139Z,11.60
2022-10-05T08:06:33.257Z,11.60
2022-10-05T08:09:04.280Z,11.60
2022-10-05T08:11:33.807Z,11.70
2022-10-05T08:14:06.113Z,11.60
2022-10-05T08:16:35.185Z,11.60
2022-10-05T08:19:06.423Z,11.60
2022-10-05T08:21:39.043Z,11.70
2022-10-05T08:24:15.505Z,11.70
2022-10-05T08:26:54.344Z,11.80
2022-10-05T08:29:31.752Z,11.80
2022-10-05T08:32:01.334Z,11.90
2022-10-05T08:34:39.886Z,11.90
2022-10-05T08:37:09.295Z,12.00
2022-10-05T08:39:40.770Z,12.10
2022-10-05T08:42:07.282Z,12.20
2022-10-05T08:44:42.763Z,12.20
2022-10-05T08:47:09.154Z,12.40
2022-10-05T08:49:38.698Z,12.50
2022-10-05T08:52:17.518Z,12.50
2022-10-05T08:55:02.896Z,12.60
2022-10-05T08:57:41.682Z,12.70
2022-10-05T09:00:12.886Z,13.00
2022-10-05T09:02:58.560Z,13.10
2022-10-05T09:05:44.039Z,13.10
2022-10-05T09:08:10.544Z,13.20
2022-10-05T09:10:52.639Z,13.10
2022-10-05T09:13:38.988Z,13.20
2022-10-05T09:16:05.535Z,13.30
2022-10-05T09:18:51.017Z,13.20
2022-10-05T09:21:23.404Z,13.30
2022-10-05T09:23:54.821Z,13.20
2022-10-05T09:26:40.207Z,13.30
2022-10-05T09:29:09.623Z,13.20
2022-10-05T09:31:54.849Z,13.30
2022-10-05T09:34:21.313Z,13.40
2022-10-05T09:36:47.857Z,13.70
2022-10-05T09:39:17.320Z,13.80
2022-10-05T09:41:58.470Z,13.80
2022-10-05T09:44:24.969Z,13.90
2022-10-05T09:46:58.606Z,14.10
2022-10-05T09:49:40.564Z,14.30
2022-10-05T09:52:19.448Z,14.50
2022-10-05T09:55:05.429Z,14.80
2022-10-05T09:57:38.392Z,14.80
2022-10-05T10:00:08.512Z,14.70
2022-10-05T10:02:55.093Z,14.80
2022-10-05T10:05:25.888Z,14.80
2022-10-05T10:07:55.424Z,15.10
2022-10-05T10:10:21.916Z,15.20
2022-10-05T10:12:48.348Z,15.20
2022-10-05T10:15:31.813Z,15.40
2022-10-05T10:18:17.239Z,15.50
2022-10-05T10:21:07.354Z,15.60
2022-10-05T10:23:33.822Z,15.60
2022-10-05T10:26:00.380Z,15.80
2022-10-05T10:28:35.353Z,16.20
2022-10-05T10:31:17.144Z,16.50
2022-10-05T10:33:59.146Z,16.90
2022-10-05T10:36:35.520Z,17.40
2022-10-05T10:39:04.309Z,17.70
2022-10-05T10:41:49.667Z,18.60
2022-10-05T10:44:16.216Z,19.40
2022-10-05T10:46:48.991Z,20.20
2022-10-05T10:49:26.034Z,20.60
2022-10-05T10:52:11.570Z,20.70
2022-10-05T10:54:47.518Z,21.60
2022-10-05T10:57:16.814Z,23.70
2022-10-05T10:59:43.407Z,24.40
2022-10-05T11:02:33.154Z,24.60
2022-10-05T11:05:03.280Z,23.80
2022-10-05T11:07:29.770Z,22.60
2022-10-05T11:10:02.394Z,21.70
2022-10-05T11:12:37.608Z,21.00
2022-10-05T11:15:22.919Z,20.30
2022-10-05T11:18:09.636Z,20.00
2022-10-05T11:20:50.174Z,19.80
2022-10-05T11:23:29.211Z,19.80
2022-10-05T11:26:14.644Z,19.80
2022-10-05T11:28:50.083Z,19.70
2022-10-05T11:31:39.751Z,19.30
2022-10-05T11:34:22.118Z,19.10
2022-10-05T11:37:04.191Z,19.10
2022-10-05T11:39:43.328Z,19.00
2022-10-05T11:42:20.551Z,19.10
2022-10-05T11:45:06.180Z,19.20
2022-10-05T11:47:40.275Z,19.40
2022-10-05T11:50:09.584Z,19.80
2022-10-05T11:52:58.646Z,19.80
2022-10-05T11:55:33.217Z,19.70
2022-10-05T11:58:07.306Z,19.70
2022-10-05T12:00:40.395Z,19.60
2022-10-05T12:03:10.006Z,19.60
2022-10-05T12:05:49.991Z,19.70
2022-10-05T12:08:35.330Z,19.90
2022-10-05T12:11:04.785Z,20.30
2022-10-05T12:13:36.861Z,20.40
2022-10-05T12:16:17.295Z,20.20
2022-10-05T12:18:50.426Z,20.00
2022-10-05T12:21:28.929Z,20.00
2022-10-05T12:23:58.809Z,19.90
2022-10-05T12:26:32.621Z,20.00
2022-10-05T12:28:59.398Z,20.20
2022-10-05T12:31:33.680Z,20.30
2022-10-05T12:34:03.852Z,20.40
2022-10-05T12:37:05.884Z,20.30
2022-10-05T12:39:39.111Z,20.30
2022-10-05T12:42:20.849Z,20.30
2022-10-05T12:45:03.795Z,20.20
2022-10-05T12:47:53.651Z,19.90
2022-10-05T12:50:28.268Z,19.80
2022-10-05T12:53:01.128Z,19.80
2022-10-05T12:55:36.871Z,19.80
2022-10-05T12:58:19.940Z,20.00
2022-10-05T13:00:57.307Z,20.00
2022-10-05T13:03:45.945Z,20.10
2022-10-05T13:06:20.809Z,20.30
2022-10-05T13:09:02.910Z,20.20
2022-10-05T13:11:35.693Z,20.10
2022-10-05T13:14:02.367Z,19.90
2022-10-05T13:16:54.788Z,19.80
2022-10-05T13:19:40.576Z,20.00
2022-10-05T13:22:19.920Z,20.10
2022-10-05T13:24:55.605Z,20.20
2022-10-05T13:27:24.997Z,20.20
2022-10-05T13:29:54.556Z,20.20
2022-10-05T13:32:23.969Z,20.20
2022-10-05T13:35:11.693Z,20.20
2022-10-05T13:37:43.825Z,20.20
2022-10-05T13:40:29.218Z,20.10
2022-10-05T13:43:00.615Z,20.20
2022-10-05T13:45:29.680Z,20.10
2022-10-05T13:47:56.146Z,20.00
2022-10-05T13:50:33.416Z,20.10
2022-10-05T13:53:21.844Z,20.20
2022-10-05T13:55:56.432Z,20.10
2022-10-05T13:58:42.739Z,19.90
2022-10-05T14:01:30.912Z,19.90
2022-10-05T14:04:05.034Z,19.90
2022-10-05T14:06:32.660Z,20.00
2022-10-05T14:09:02.572Z,19.90
2022-10-05T14:11:36.247Z,19.80
2022-10-05T14:14:21.631Z,19.80
2022-10-05T14:16:51.035Z,19.70
2022-10-05T14:19:40.964Z,19.70
2022-10-05T14:22:24.427Z,19.70
2022-10-05T14:25:16.185Z,19.80
2022-10-05T14:27:48.574Z,19.70
2022-10-05T14:30:15.030Z,19.70
2022-10-05T14:33:00.441Z,19.70
2022-10-05T14:35:43.150Z,19.80
2022-10-05T14:38:18.201Z,19.80
2022-10-05T14:40:44.703Z,19.80
2022-10-05T14:43:14.120Z,19.80
2022-10-05T14:45:57.569Z,19.80
2022-10-05T14:48:27.895Z,19.80
2022-10-05T14:50:59.138Z,19.80
2022-10-05T14:53:36.220Z,19.80
2022-10-05T14:56:17.058Z,19.80
2022-10-05T14:58:56.350Z,19.90
2022-10-05T15:01:27.342Z,19.90
2022-10-05T15:04:02.282Z,19.80
2022-10-05T15:06:31.770Z,19.80
2022-10-05T15:09:17.867Z,19.90
2022-10-05T15:11:50.819Z,19.80
2022-10-05T15:14:22.697Z,19.80
2022-10-05T15:17:01.806Z,19.70
2022-10-05T15:19:34.970Z,19.70
2022-10-05T15:22:10.450Z,19.70
2022-10-05T15:24:45.406Z,19.70
2022-10-05T15:27:32.181Z,19.70
2022-10-05T15:30:03.444Z,19.70
2022-10-05T15:32:49.798Z,19.70
2022-10-05T15:35:22.443Z,19.70
2022-10-05T15:37:59.649Z,19.70
2022-10-05T15:40:37.802Z,19.70
2022-10-05T15:43:09.524Z,19.70
2022-10-05T15:45:39.552Z,19.60
2022-10-05T15:48:17.811Z,19.50
2022-10-05T15:50:59.676Z,19.50
2022-10-05T15:53:45.791Z,19.50
2022-10-05T15:56:15.594Z,19.40
2022-10-05T15:58:49.473Z,19.40
2022-10-05T16:01:21.120Z,19.40
2022-10-05T16:03:53.946Z,19.40
2022-10-05T16:06:47.187Z,19.30
2022-10-05T16:09:22.747Z,19.30
2022-10-05T16:12:03.600Z,19.20
2022-10-05T16:14:54.903Z,19.20
2022-10-05T16:17:30.089Z,19.20
2022-10-05T16:20:05.541Z,19.10
2022-10-05T16:22:32.290Z,19.00
2022-10-05T16:25:08.371Z,19.00
2022-10-05T16:27:48.320Z,18.90
2022-10-05T16:30:16.836Z,18.80
2022-10-05T16:32:50.024Z,18.80
2022-10-05T16:35:25.023Z,18.70
2022-10-05T16:37:56.180Z,18.60
2022-10-05T16:40:31.971Z,18.50
2022-10-05T16:43:04.654Z,18.50
2022-10-05T16:45:46.781Z,18.40
2022-10-05T16:48:26.171Z,18.40
2022-10-05T16:50:59.382Z,18.30
2022-10-05T16:53:28.936Z,18.20
2022-10-05T16:56:00.775Z,18.10
2022-10-05T16:58:33.496Z,18.00
2022-10-05T17:01:05.511Z,18.00
2022-10-05T17:03:40.140Z,17.90
2022-10-05T17:06:26.725Z,17.80
2022-10-05T17:09:12.302Z,17.80
2022-10-05T17:11:55.422Z,17.70
2022-10-05T17:14:22.034Z,17.60
2022-10-05T17:17:08.038Z,17.50
2022-10-05T17:19:43.577Z,17.40
2022-10-05T17:22:22.765Z,17.30
2022-10-05T17:24:54.293Z,17.30
2022-10-05T17:27:32.738Z,17.20
2022-10-05T17:30:18.002Z,17.10
2022-10-05T17:32:56.236Z,17.10
2022-10-05T17:35:49.221Z,17.00
2022-10-05T17:38:23.140Z,17.00
2022-10-05T17:41:08.763Z,16.90
2022-10-05T17:43:35.545Z,16.80
2022-10-05T17:46:12.424Z,16.80
2022-10-05T17:48:41.799Z,16.70
2022-10-05T17:51:46.182Z,16.70
2022-10-05T17:54:39.138Z,16.60
2022-10-05T17:57:05.553Z,16.50
2022-10-05T17:59:48.921Z,16.50
2022-10-05T18:02:40.286Z,16.50
2022-10-05T18:05:11.965Z,16.40
2022-10-05T18:07:39.327Z,16.30
2022-10-05T18:10:12.038Z,16.30
2022-10-05T18:12:41.219Z,16.30
2022-10-05T18:15:07.680Z,16.20
2022-10-05T18:17:45.469Z,16.20
2022-10-05T18:20:13.476Z,16.10
2022-10-05T18:22:40.368Z,16.10
2022-10-05T18:25:20.039Z,16.00
2022-10-05T18:28:06.145Z,16.00
2022-10-05T18:30:37.065Z,16.00
2022-10-05T18:33:03.510Z,16.00
2022-10-05T18:35:33.092Z,16.00
2022-10-05T18:38:09.404Z,16.00
2022-10-05T18:40:52.962Z,16.10
2022-10-05T18:43:27.575Z,16.10
2022-10-05T18:46:07.885Z,16.10
2022-10-05T18:48:35.552Z,16.20
2022-10-05T18:51:02.148Z,16.20
2022-10-05T18:53:44.278Z,16.10
2022-10-05T18:56:10.707Z,16.10
2022-10-05T18:58:51.060Z,16.20
2022-10-05T19:01:39.810Z,16.20
2022-10-05T19:04:15.644Z,16.20
2022-10-05T19:06:51.358Z,16.20
2022-10-05T19:09:26.115Z,16.20
2022-10-05T19:12:00.941Z,16.20
2022-10-05T19:14:46.314Z,16.30
2022-10-05T19:17:18.960Z,16.40
2022-10-05T19:20:05.885Z,16.40
2022-10-05T19:22:42.057Z,16.50
2022-10-05T19:25:14.551Z,16.50
2022-10-05T19:27:59.870Z,16.50
2022-10-05T19:30:32.907Z,16.60
2022-10-05T19:33:11.670Z,16.70
2022-10-05T19:35:44.325Z,16.80
2022-10-05T19:38:16.732Z,16.90
2022-10-05T19:40:54.395Z,16.90
2022-10-05T19:43:27.674Z,16.90
2022-10-05T19:46:12.601Z,16.90
2022-10-05T19:48:44.417Z,16.90
2022-10-05T19:51:12.512Z,16.90
2022-10-05T19:53:45.647Z,16.90
2022-10-05T19:56:25.850Z,16.80
2022-10-05T19:59:00.885Z,16.70
2022-10-05T20:01:31.158Z,16.70
2022-10-05T20:03:58.037Z,16.80
2022-10-05T20:06:26.658Z,16.70
2022-10-05T20:08:54.005Z,16.70
2022-10-05T20:11:21.940Z,16.70
2022-10-05T20:13:58.288Z,16.60
2022-10-05T20:19:46.078Z,16.60
2022-10-05T20:22:24.682Z,16.50
2022-10-05T20:24:52.540Z,16.50
2022-10-05T20:27:38.357Z,16.60
2022-10-05T20:30:05.756Z,16.60
2022-10-05T20:32:32.343Z,16.50
2022-10-05T20:34:58.878Z,16.50
2022-10-05T20:37:25.645Z,16.40
2022-10-05T20:39:52.267Z,16.40
2022-10-05T20:42:19.448Z,16.30
2022-10-05T20:44:45.999Z,16.30
2022-10-05T20:47:12.648Z,16.30
2022-10-05T20:49:40.997Z,16.30
2022-10-05T20:52:10.084Z,16.30
2022-10-05T20:54:37.405Z,16.20
2022-10-05T20:57:06.150Z,16.20
2022-10-05T20:59:32.976Z,16.10
2022-10-05T21:02:01.324Z,16.10
2022-10-05T21:04:40.316Z,16.10
2022-10-05T21:07:07.569Z,16.10
2022-10-05T21:09:34.095Z,16.00
2022-10-05T21:12:00.630Z,16.00
2022-10-05T21:14:30.445Z,16.00
2022-10-05T21:16:56.999Z,16.00
2022-10-05T21:19:23.505Z,15.90
2022-10-05T21:21:50.064Z,15.90
2022-10-05T21:24:17.311Z,15.80
2022-10-05T21:26:44.407Z,15.80
2022-10-05T21:29:12.713Z,15.80
2022-10-05T21:31:39.819Z,15.80
2022-10-05T21:34:06.511Z,15.70
2022-10-05T21:36:33.169Z,15.70
2022-10-05T21:38:59.994Z,15.60
2022-10-05T21:41:26.688Z,15.50
2022-10-05T21:43:53.189Z,15.50
2022-10-05T21:46:21.059Z,15.40
2022-10-05T21:48:48.079Z,15.40
2022-10-05T21:51:16.564Z,15.40
2022-10-05T21:53:46.083Z,15.40
2022-10-05T21:56:13.988Z,15.30
2022-10-05T21:58:42.091Z,15.30
2022-10-05T22:01:09.099Z,15.30
2022-10-05T22:03:35.646Z,15.20
2022-10-05T22:06:03.589Z,15.20
2022-10-05T22:08:31.830Z,15.20
2022-10-05T22:10:58.958Z,15.20
2022-10-05T22:13:26.132Z,15.20
2022-10-05T22:15:55.405Z,15.10
2022-10-05T22:18:23.356Z,15.00
2022-10-05T22:20:50.228Z,14.90
2022-10-05T22:23:16.799Z,14.90
2022-10-05T22:25:43.625Z,14.80
2022-10-05T22:28:11.522Z,14.80
2022-10-05T22:30:38.421Z,14.70
2022-10-05T22:33:04.947Z,14.70
2022-10-05T22:35:34.774Z,14.60
2022-10-05T22:38:01.811Z,14.60
2022-10-05T22:40:28.275Z,14.60
2022-10-05T22:42:54.894Z,14.60
2022-10-05T22:45:21.350Z,14.60
2022-10-05T22:47:48.068Z,14.60
2022-10-05T22:50:14.815Z,14.60
2022-10-05T22:52:42.412Z,14.60
2022-10-05T22:55:09.047Z,14.50
2022-10-05T22:57:39.292Z,14.50
2022-10-05T23:00:06.769Z,14.50
2022-10-05T23:02:37.191Z,14.40
2022-10-05T23:05:03.864Z,14.40
2022-10-05T23:07:35.415Z,14.40
2022-10-05T23:10:02.245Z,14.40
2022-10-05T23:12:28.748Z,14.20
2022-10-05T23:14:55.402Z,14.20
2022-10-05T23:17:21.922Z,14.10
2022-10-05T23:19:48.459Z,14.00
2022-10-05T23:22:14.949Z,13.90
2022-10-05T23:24:41.479Z,13.80
2022-10-05T23:27:08.022Z,13.70
2022-10-05T23:29:34.544Z,13.70
2022-10-05T23:32:01.092Z,13.70
2022-10-05T23:34:27.619Z,13.70
2022-10-05T23:36:54.128Z,13.60
2022-10-05T23:39:20.613Z,13.50
2022-10-05T23:41:47.156Z,13.50
2022-10-05T23:44:13.627Z,13.60
2022-10-05T23:46:40.168Z,13.60
2022-10-05T23:49:06.979Z,13.60
2022-10-05T23:51:33.396Z,13.60
2022-10-05T23:53:59.849Z,13.60
2022-10-05T23:56:26.316Z,13.60
2022-10-05T23:58:52.833Z,13.60
